sensor_id;sensor_type;location;lat;lon;timestamp;P1;durP1;ratioP1;P2;durP2;ratioP2
38023;SDS011;23834;48.080;11.682;2024-01-10T00:01:01;18.73;;;17.00;;
38023;SDS011;23834;48.080;11.682;2024-01-10T00:03:26;18.90;;;17.30;;
38023;SDS011;23834;48.080;11.682;2024-01-10T00:05:51;18.33;;;16.77;;
38023;SDS011;23834;48.080;11.682;2024-01-10T00:08:17;18.57;;;16.73;;
38023;SDS011;23834;48.080;11.682;2024-01-10T00:10:42;17.07;;;15.57;;
38023;SDS011;23834;48.080;11.682;2024-01-10T00:13:07;17.43;;;15.93;;
38023;SDS011;23834;48.080;11.682;2024-01-10T00:15:32;17.80;;;16.30;;
38023;SDS011;23834;48.080;11.682;2024-01-10T00:17:57;17.07;;;15.47;;
38023;SDS011;23834;48.080;11.682;2024-01-10T00:20:23;17.13;;;15.63;;
38023;SDS011;23834;48.080;11.682;2024-01-10T00:22:48;17.77;;;16.07;;
38023;SDS011;23834;48.080;11.682;2024-01-10T00:25:13;18.07;;;16.27;;
38023;SDS011;23834;48.080;11.682;2024-01-10T00:27:38;17.27;;;15.73;;
38023;SDS011;23834;48.080;11.682;2024-01-10T00:30:04;18.20;;;16.47;;
38023;SDS011;23834;48.080;11.682;2024-01-10T00:32:29;16.93;;;15.43;;
38023;SDS011;23834;48.080;11.682;2024-01-10T00:34:54;16.97;;;15.37;;
38023;SDS011;23834;48.080;11.682;2024-01-10T00:37:19;16.77;;;15.27;;
38023;SDS011;23834;48.080;11.682;2024-01-10T00:39:44;16.20;;;14.80;;
38023;SDS011;23834;48.080;11.682;2024-01-10T00:42:10;16.83;;;15.33;;
38023;SDS011;23834;48.080;11.682;2024-01-10T00:44:35;16.87;;;15.30;;
38023;SDS011;23834;48.080;11.682;2024-01-10T00:47:01;16.00;;;14.43;;
38023;SDS011;23834;48.080;11.682;2024-01-10T00:49:26;17.07;;;15.57;;
38023;SDS011;23834;48.080;11.682;2024-01-10T00:51:51;16.40;;;15.00;;
38023;SDS011;23834;48.080;11.682;2024-01-10T00:54:17;15.90;;;14.40;;
38023;SDS011;23834;48.080;11.682;2024-01-10T00:56:42;16.57;;;14.90;;
38023;SDS011;23834;48.080;11.682;2024-01-10T00:59:07;15.47;;;14.07;;
38023;SDS011;23834;48.080;11.682;2024-01-10T01:01:32;15.87;;;14.37;;
38023;SDS011;23834;48.080;11.682;2024-01-10T01:03:57;15.50;;;14.13;;
38023;SDS011;23834;48.080;11.682;2024-01-10T01:06:22;15.17;;;13.77;;
38023;SDS011;23834;48.080;11.682;2024-01-10T01:08:48;15.23;;;13.93;;
38023;SDS011;23834;48.080;11.682;2024-01-10T01:11:13;15.10;;;13.70;;
38023;SDS011;23834;48.080;11.682;2024-01-10T01:13:39;16.70;;;15.10;;
38023;SDS011;23834;48.080;11.682;2024-01-10T01:16:04;15.50;;;14.00;;
38023;SDS011;23834;48.080;11.682;2024-01-10T01:18:30;16.17;;;14.67;;
38023;SDS011;23834;48.080;11.682;2024-01-10T01:20:55;15.07;;;13.60;;
38023;SDS011;23834;48.080;11.682;2024-01-10T01:23:20;14.90;;;13.40;;
38023;SDS011;23834;48.080;11.682;2024-01-10T01:25:45;14.93;;;13.63;;
38023;SDS011;23834;48.080;11.682;2024-01-10T01:28:10;15.20;;;13.70;;
38023;SDS011;23834;48.080;11.682;2024-01-10T01:30:35;14.93;;;13.50;;
38023;SDS011;23834;48.080;11.682;2024-01-10T01:33:01;14.87;;;13.37;;
38023;SDS011;23834;48.080;11.682;2024-01-10T01:35:28;15.03;;;13.53;;
38023;SDS011;23834;48.080;11.682;2024-01-10T01:37:53;14.30;;;12.90;;
38023;SDS011;23834;48.080;11.682;2024-01-10T01:40:19;16.00;;;14.47;;
38023;SDS011;23834;48.080;11.682;2024-01-10T01:42:45;14.77;;;13.40;;
38023;SDS011;23834;48.080;11.682;2024-01-10T01:45:10;14.33;;;13.03;;
38023;SDS011;23834;48.080;11.682;2024-01-10T01:47:35;14.70;;;13.40;;
38023;SDS011;23834;48.080;11.682;2024-01-10T01:50:00;15.20;;;13.70;;
38023;SDS011;23834;48.080;11.682;2024-01-10T01:52:26;14.47;;;13.10;;
38023;SDS011;23834;48.080;11.682;2024-01-10T01:54:51;15.20;;;13.70;;
38023;SDS011;23834;48.080;11.682;2024-01-10T01:57:17;14.57;;;13.17;;
38023;SDS011;23834;48.080;11.682;2024-01-10T01:59:42;15.20;;;13.60;;
38023;SDS011;23834;48.080;11.682;2024-01-10T02:02:07;14.67;;;13.27;;
38023;SDS011;23834;48.080;11.682;2024-01-10T02:04:32;15.10;;;13.70;;
38023;SDS011;23834;48.080;11.682;2024-01-10T02:06:58;14.20;;;12.80;;
38023;SDS011;23834;48.080;11.682;2024-01-10T02:09:23;15.70;;;14.00;;
38023;SDS011;23834;48.080;11.682;2024-01-10T02:11:48;14.43;;;13.13;;
38023;SDS011;23834;48.080;11.682;2024-01-10T02:14:14;13.70;;;12.40;;
38023;SDS011;23834;48.080;11.682;2024-01-10T02:16:40;13.93;;;12.63;;
38023;SDS011;23834;48.080;11.682;2024-01-10T02:19:21;13.13;;;11.83;;
38023;SDS011;23834;48.080;11.682;2024-01-10T02:21:46;13.57;;;12.30;;
38023;SDS011;23834;48.080;11.682;2024-01-10T02:24:12;13.83;;;12.43;;
38023;SDS011;23834;48.080;11.682;2024-01-10T02:26:37;13.80;;;12.40;;
38023;SDS011;23834;48.080;11.682;2024-01-10T02:29:02;14.60;;;13.10;;
38023;SDS011;23834;48.080;11.682;2024-01-10T02:31:27;13.57;;;12.07;;
38023;SDS011;23834;48.080;11.682;2024-01-10T02:33:52;12.93;;;11.80;;
38023;SDS011;23834;48.080;11.682;2024-01-10T02:36:18;13.50;;;12.27;;
38023;SDS011;23834;48.080;11.682;2024-01-10T02:38:43;13.37;;;12.17;;
38023;SDS011;23834;48.080;11.682;2024-01-10T02:41:08;13.33;;;12.07;;
38023;SDS011;23834;48.080;11.682;2024-01-10T02:43:33;14.13;;;12.73;;
38023;SDS011;23834;48.080;11.682;2024-01-10T02:45:58;13.00;;;11.70;;
38023;SDS011;23834;48.080;11.682;2024-01-10T02:48:24;13.27;;;12.00;;
38023;SDS011;23834;48.080;11.682;2024-01-10T02:50:49;14.03;;;12.73;;
38023;SDS011;23834;48.080;11.682;2024-01-10T02:53:15;13.03;;;11.77;;
38023;SDS011;23834;48.080;11.682;2024-01-10T02:55:40;12.50;;;11.40;;
38023;SDS011;23834;48.080;11.682;2024-01-10T02:58:05;13.57;;;12.17;;
38023;SDS011;23834;48.080;11.682;2024-01-10T03:00:31;14.40;;;13.00;;
38023;SDS011;23834;48.080;11.682;2024-01-10T03:02:56;14.07;;;11.50;;
38023;SDS011;23834;48.080;11.682;2024-01-10T03:05:22;14.23;;;12.93;;
38023;SDS011;23834;48.080;11.682;2024-01-10T03:07:47;13.00;;;11.70;;
38023;SDS011;23834;48.080;11.682;2024-01-10T03:10:12;12.90;;;11.73;;
38023;SDS011;23834;48.080;11.682;2024-01-10T03:12:37;12.17;;;11.07;;
38023;SDS011;23834;48.080;11.682;2024-01-10T03:15:04;13.07;;;11.83;;
38023;SDS011;23834;48.080;11.682;2024-01-10T03:17:29;12.70;;;11.40;;
38023;SDS011;23834;48.080;11.682;2024-01-10T03:19:54;13.93;;;12.53;;
38023;SDS011;23834;48.080;11.682;2024-01-10T03:22:19;13.17;;;11.97;;
38023;SDS011;23834;48.080;11.682;2024-01-10T03:24:44;13.83;;;12.43;;
38023;SDS011;23834;48.080;11.682;2024-01-10T03:27:10;13.30;;;12.00;;
38023;SDS011;23834;48.080;11.682;2024-01-10T03:29:35;12.40;;;11.23;;
38023;SDS011;23834;48.080;11.682;2024-01-10T03:32:00;11.97;;;10.77;;
38023;SDS011;23834;48.080;11.682;2024-01-10T03:34:25;13.90;;;12.50;;
38023;SDS011;23834;48.080;11.682;2024-01-10T03:36:50;13.27;;;12.00;;
38023;SDS011;23834;48.080;11.682;2024-01-10T03:39:15;12.77;;;11.57;;
38023;SDS011;23834;48.080;11.682;2024-01-10T03:41:41;12.33;;;11.13;;
38023;SDS011;23834;48.080;11.682;2024-01-10T03:44:06;13.00;;;11.80;;
38023;SDS011;23834;48.080;11.682;2024-01-10T03:46:31;12.53;;;11.33;;
38023;SDS011;23834;48.080;11.682;2024-01-10T03:48:56;13.13;;;11.83;;
38023;SDS011;23834;48.080;11.682;2024-01-10T03:51:22;12.60;;;11.40;;
38023;SDS011;23834;48.080;11.682;2024-01-10T03:53:47;13.47;;;12.10;;
38023;SDS011;23834;48.080;11.682;2024-01-10T03:56:14;12.63;;;11.47;;
38023;SDS011;23834;48.080;11.682;2024-01-10T03:58:41;12.70;;;11.50;;
38023;SDS011;23834;48.080;11.682;2024-01-10T04:01:06;13.20;;;12.00;;
38023;SDS011;23834;48.080;11.682;2024-01-10T04:03:32;12.40;;;11.30;;
38023;SDS011;23834;48.080;11.682;2024-01-10T04:05:57;12.00;;;10.80;;
38023;SDS011;23834;48.080;11.682;2024-01-10T04:08:22;12.77;;;11.57;;
38023;SDS011;23834;48.080;11.682;2024-01-10T04:10:48;12.20;;;10.90;;
38023;SDS011;23834;48.080;11.682;2024-01-10T04:13:13;12.63;;;11.37;;
38023;SDS011;23834;48.080;11.682;2024-01-10T04:15:38;11.60;;;10.60;;
38023;SDS011;23834;48.080;11.682;2024-01-10T04:18:03;11.80;;;10.80;;
38023;SDS011;23834;48.080;11.682;2024-01-10T04:20:29;11.50;;;10.50;;
38023;SDS011;23834;48.080;11.682;2024-01-10T04:22:54;11.63;;;10.63;;
38023;SDS011;23834;48.080;11.682;2024-01-10T04:25:19;12.50;;;11.20;;
38023;SDS011;23834;48.080;11.682;2024-01-10T04:27:44;12.40;;;11.10;;
38023;SDS011;23834;48.080;11.682;2024-01-10T04:30:10;12.10;;;10.90;;
38023;SDS011;23834;48.080;11.682;2024-01-10T04:32:35;11.93;;;10.53;;
38023;SDS011;23834;48.080;11.682;2024-01-10T04:35:00;11.77;;;10.57;;
38023;SDS011;23834;48.080;11.682;2024-01-10T04:37:25;12.20;;;11.00;;
38023;SDS011;23834;48.080;11.682;2024-01-10T04:39:51;12.30;;;11.07;;
38023;SDS011;23834;48.080;11.682;2024-01-10T04:42:16;11.67;;;10.50;;
38023;SDS011;23834;48.080;11.682;2024-01-10T04:44:41;11.67;;;10.60;;
38023;SDS011;23834;48.080;11.682;2024-01-10T04:47:07;12.13;;;11.03;;
38023;SDS011;23834;48.080;11.682;2024-01-10T04:49:32;12.13;;;10.93;;
38023;SDS011;23834;48.080;11.682;2024-01-10T04:51:57;12.67;;;11.33;;
38023;SDS011;23834;48.080;11.682;2024-01-10T04:54:22;12.00;;;10.80;;
38023;SDS011;23834;48.080;11.682;2024-01-10T04:56:48;12.23;;;11.13;;
38023;SDS011;23834;48.080;11.682;2024-01-10T04:59:13;11.63;;;10.43;;
38023;SDS011;23834;48.080;11.682;2024-01-10T05:01:38;12.47;;;11.27;;
38023;SDS011;23834;48.080;11.682;2024-01-10T05:04:03;11.90;;;10.80;;
38023;SDS011;23834;48.080;11.682;2024-01-10T05:06:29;11.83;;;10.73;;
38023;SDS011;23834;48.080;11.682;2024-01-10T05:08:54;11.77;;;10.60;;
38023;SDS011;23834;48.080;11.682;2024-01-10T05:11:22;12.07;;;10.87;;
38023;SDS011;23834;48.080;11.682;2024-01-10T05:13:48;12.87;;;11.37;;
38023;SDS011;23834;48.080;11.682;2024-01-10T05:16:13;12.30;;;11.20;;
38023;SDS011;23834;48.080;11.682;2024-01-10T05:18:38;11.90;;;10.70;;
38023;SDS011;23834;48.080;11.682;2024-01-10T05:21:03;12.53;;;11.33;;
38023;SDS011;23834;48.080;11.682;2024-01-10T05:23:29;12.40;;;11.10;;
38023;SDS011;23834;48.080;11.682;2024-01-10T05:25:54;11.77;;;10.57;;
38023;SDS011;23834;48.080;11.682;2024-01-10T05:28:19;12.80;;;11.30;;
38023;SDS011;23834;48.080;11.682;2024-01-10T05:30:44;12.33;;;11.13;;
38023;SDS011;23834;48.080;11.682;2024-01-10T05:33:10;12.17;;;10.87;;
38023;SDS011;23834;48.080;11.682;2024-01-10T05:35:36;12.50;;;11.20;;
38023;SDS011;23834;48.080;11.682;2024-01-10T05:38:01;12.77;;;11.57;;
38023;SDS011;23834;48.080;11.682;2024-01-10T05:40:27;12.30;;;11.00;;
38023;SDS011;23834;48.080;11.682;2024-01-10T05:42:54;12.60;;;10.90;;
38023;SDS011;23834;48.080;11.682;2024-01-10T05:45:20;12.80;;;11.60;;
38023;SDS011;23834;48.080;11.682;2024-01-10T05:47:45;12.10;;;11.00;;
38023;SDS011;23834;48.080;11.682;2024-01-10T05:50:10;12.93;;;11.67;;
38023;SDS011;23834;48.080;11.682;2024-01-10T05:52:35;12.40;;;11.20;;
38023;SDS011;23834;48.080;11.682;2024-01-10T05:55:00;12.70;;;11.50;;
38023;SDS011;23834;48.080;11.682;2024-01-10T05:57:27;12.97;;;11.73;;
38023;SDS011;23834;48.080;11.682;2024-01-10T05:59:52;12.23;;;11.03;;
38023;SDS011;23834;48.080;11.682;2024-01-10T06:02:21;12.80;;;11.43;;
38023;SDS011;23834;48.080;11.682;2024-01-10T06:04:46;12.00;;;10.90;;
38023;SDS011;23834;48.080;11.682;2024-01-10T06:07:12;12.10;;;10.80;;
38023;SDS011;23834;48.080;11.682;2024-01-10T06:09:37;13.77;;;12.20;;
38023;SDS011;23834;48.080;11.682;2024-01-10T06:12:02;14.53;;;13.03;;
38023;SDS011;23834;48.080;11.682;2024-01-10T06:14:28;12.57;;;11.27;;
38023;SDS011;23834;48.080;11.682;2024-01-10T06:16:53;12.00;;;10.90;;
38023;SDS011;23834;48.080;11.682;2024-01-10T06:19:18;13.13;;;11.80;;
38023;SDS011;23834;48.080;11.682;2024-01-10T06:21:43;13.73;;;12.43;;
38023;SDS011;23834;48.080;11.682;2024-01-10T06:24:09;13.23;;;11.90;;
38023;SDS011;23834;48.080;11.682;2024-01-10T06:26:34;13.23;;;11.93;;
38023;SDS011;23834;48.080;11.682;2024-01-10T06:28:59;14.07;;;12.67;;
38023;SDS011;23834;48.080;11.682;2024-01-10T06:31:25;13.30;;;11.90;;
38023;SDS011;23834;48.080;11.682;2024-01-10T06:33:50;13.30;;;12.00;;
38023;SDS011;23834;48.080;11.682;2024-01-10T06:36:15;13.37;;;12.07;;
38023;SDS011;23834;48.080;11.682;2024-01-10T06:38:40;14.00;;;12.57;;
38023;SDS011;23834;48.080;11.682;2024-01-10T06:41:09;13.60;;;12.20;;
38023;SDS011;23834;48.080;11.682;2024-01-10T06:43:35;13.97;;;12.57;;
38023;SDS011;23834;48.080;11.682;2024-01-10T06:46:00;14.20;;;12.80;;
38023;SDS011;23834;48.080;11.682;2024-01-10T06:48:25;13.47;;;12.07;;
38023;SDS011;23834;48.080;11.682;2024-01-10T06:50:50;14.37;;;12.97;;
38023;SDS011;23834;48.080;11.682;2024-01-10T06:53:16;13.43;;;12.13;;
38023;SDS011;23834;48.080;11.682;2024-01-10T06:55:41;14.67;;;13.27;;
38023;SDS011;23834;48.080;11.682;2024-01-10T06:58:06;13.60;;;12.30;;
38023;SDS011;23834;48.080;11.682;2024-01-10T07:00:31;14.77;;;13.20;;
38023;SDS011;23834;48.080;11.682;2024-01-10T07:02:56;14.63;;;13.00;;
38023;SDS011;23834;48.080;11.682;2024-01-10T07:05:21;13.43;;;12.13;;
38023;SDS011;23834;48.080;11.682;2024-01-10T07:07:47;14.43;;;13.00;;
38023;SDS011;23834;48.080;11.682;2024-01-10T07:10:14;14.40;;;13.00;;
38023;SDS011;23834;48.080;11.682;2024-01-10T07:12:39;13.90;;;12.50;;
38023;SDS011;23834;48.080;11.682;2024-01-10T07:15:05;14.60;;;13.10;;
38023;SDS011;23834;48.080;11.682;2024-01-10T07:17:30;14.83;;;13.23;;
38023;SDS011;23834;48.080;11.682;2024-01-10T07:19:55;15.00;;;13.50;;
38023;SDS011;23834;48.080;11.682;2024-01-10T07:22:23;13.73;;;12.53;;
38023;SDS011;23834;48.080;11.682;2024-01-10T07:24:49;14.40;;;13.00;;
38023;SDS011;23834;48.080;11.682;2024-01-10T07:27:14;15.10;;;13.60;;
38023;SDS011;23834;48.080;11.682;2024-01-10T07:29:40;14.23;;;12.90;;
38023;SDS011;23834;48.080;11.682;2024-01-10T07:32:05;14.53;;;12.70;;
38023;SDS011;23834;48.080;11.682;2024-01-10T07:34:30;15.27;;;13.67;;
38023;SDS011;23834;48.080;11.682;2024-01-10T07:36:55;15.20;;;13.70;;
38023;SDS011;23834;48.080;11.682;2024-01-10T07:39:20;13.60;;;12.30;;
38023;SDS011;23834;48.080;11.682;2024-01-10T07:41:46;14.70;;;13.20;;
38023;SDS011;23834;48.080;11.682;2024-01-10T07:44:11;14.63;;;13.13;;
38023;SDS011;23834;48.080;11.682;2024-01-10T07:46:37;13.30;;;12.00;;
38023;SDS011;23834;48.080;11.682;2024-01-10T07:49:03;13.47;;;12.13;;
38023;SDS011;23834;48.080;11.682;2024-01-10T07:51:29;14.47;;;12.70;;
38023;SDS011;23834;48.080;11.682;2024-01-10T07:53:55;14.83;;;12.70;;
38023;SDS011;23834;48.080;11.682;2024-01-10T07:56:20;14.07;;;12.20;;
38023;SDS011;23834;48.080;11.682;2024-01-10T07:58:45;14.40;;;13.00;;
38023;SDS011;23834;48.080;11.682;2024-01-10T08:01:10;13.83;;;12.60;;
38023;SDS011;23834;48.080;11.682;2024-01-10T08:03:36;13.10;;;11.87;;
38023;SDS011;23834;48.080;11.682;2024-01-10T08:06:01;12.60;;;11.50;;
38023;SDS011;23834;48.080;11.682;2024-01-10T08:08:27;13.20;;;11.90;;
38023;SDS011;23834;48.080;11.682;2024-01-10T08:10:52;13.33;;;11.93;;
38023;SDS011;23834;48.080;11.682;2024-01-10T08:13:17;13.20;;;11.90;;
38023;SDS011;23834;48.080;11.682;2024-01-10T08:15:43;14.17;;;12.67;;
38023;SDS011;23834;48.080;11.682;2024-01-10T08:18:08;14.40;;;12.97;;
38023;SDS011;23834;48.080;11.682;2024-01-10T08:20:33;13.70;;;12.30;;
38023;SDS011;23834;48.080;11.682;2024-01-10T08:22:58;14.03;;;12.63;;
38023;SDS011;23834;48.080;11.682;2024-01-10T08:25:24;14.90;;;13.50;;
38023;SDS011;23834;48.080;11.682;2024-01-10T08:27:49;13.73;;;12.53;;
38023;SDS011;23834;48.080;11.682;2024-01-10T08:30:14;13.10;;;11.90;;
38023;SDS011;23834;48.080;11.682;2024-01-10T08:32:40;14.53;;;13.03;;
38023;SDS011;23834;48.080;11.682;2024-01-10T08:35:05;15.63;;;13.93;;
38023;SDS011;23834;48.080;11.682;2024-01-10T08:37:32;14.80;;;13.30;;
38023;SDS011;23834;48.080;11.682;2024-01-10T08:39:58;14.33;;;12.90;;
38023;SDS011;23834;48.080;11.682;2024-01-10T08:42:24;14.13;;;12.63;;
38023;SDS011;23834;48.080;11.682;2024-01-10T08:44:49;14.63;;;13.23;;
38023;SDS011;23834;48.080;11.682;2024-01-10T08:47:14;14.30;;;12.90;;
38023;SDS011;23834;48.080;11.682;2024-01-10T08:49:40;15.40;;;13.90;;
38023;SDS011;23834;48.080;11.682;2024-01-10T08:52:05;14.83;;;12.97;;
38023;SDS011;23834;48.080;11.682;2024-01-10T08:54:30;15.93;;;14.33;;
38023;SDS011;23834;48.080;11.682;2024-01-10T08:56:55;14.60;;;13.10;;
38023;SDS011;23834;48.080;11.682;2024-01-10T08:59:20;14.50;;;13.10;;
38023;SDS011;23834;48.080;11.682;2024-01-10T09:01:46;15.87;;;14.20;;
38023;SDS011;23834;48.080;11.682;2024-01-10T09:04:11;14.57;;;13.07;;
38023;SDS011;23834;48.080;11.682;2024-01-10T09:06:36;15.93;;;14.33;;
38023;SDS011;23834;48.080;11.682;2024-01-10T09:09:02;15.40;;;13.90;;
38023;SDS011;23834;48.080;11.682;2024-01-10T09:11:27;15.57;;;13.97;;
38023;SDS011;23834;48.080;11.682;2024-01-10T09:13:53;15.80;;;14.30;;
38023;SDS011;23834;48.080;11.682;2024-01-10T09:16:18;15.00;;;13.50;;
38023;SDS011;23834;48.080;11.682;2024-01-10T09:18:46;14.80;;;13.30;;
38023;SDS011;23834;48.080;11.682;2024-01-10T09:21:11;15.20;;;13.70;;
38023;SDS011;23834;48.080;11.682;2024-01-10T09:23:37;14.37;;;12.87;;
38023;SDS011;23834;48.080;11.682;2024-01-10T09:26:02;14.93;;;13.57;;
38023;SDS011;23834;48.080;11.682;2024-01-10T09:28:27;16.47;;;14.10;;
38023;SDS011;23834;48.080;11.682;2024-01-10T09:30:52;15.10;;;13.70;;
38023;SDS011;23834;48.080;11.682;2024-01-10T09:33:19;15.20;;;13.60;;
38023;SDS011;23834;48.080;11.682;2024-01-10T09:35:44;15.43;;;13.93;;
38023;SDS011;23834;48.080;11.682;2024-01-10T09:38:09;15.53;;;13.93;;
38023;SDS011;23834;48.080;11.682;2024-01-10T09:40:34;15.63;;;14.13;;
38023;SDS011;23834;48.080;11.682;2024-01-10T09:42:59;15.37;;;13.87;;
38023;SDS011;23834;48.080;11.682;2024-01-10T09:45:24;15.57;;;13.97;;
38023;SDS011;23834;48.080;11.682;2024-01-10T09:47:54;15.03;;;13.53;;
38023;SDS011;23834;48.080;11.682;2024-01-10T09:50:20;15.43;;;13.67;;
38023;SDS011;23834;48.080;11.682;2024-01-10T09:52:49;15.80;;;14.30;;
38023;SDS011;23834;48.080;11.682;2024-01-10T09:55:15;15.67;;;14.07;;
38023;SDS011;23834;48.080;11.682;2024-01-10T09:57:41;14.40;;;12.90;;
38023;SDS011;23834;48.080;11.682;2024-01-10T10:00:07;14.97;;;13.57;;
38023;SDS011;23834;48.080;11.682;2024-01-10T10:02:35;14.30;;;13.00;;
38023;SDS011;23834;48.080;11.682;2024-01-10T10:07:50;15.50;;;13.67;;
38023;SDS011;23834;48.080;11.682;2024-01-10T10:10:16;15.40;;;13.93;;
38023;SDS011;23834;48.080;11.682;2024-01-10T10:12:44;16.00;;;14.40;;
38023;SDS011;23834;48.080;11.682;2024-01-10T10:15:14;15.40;;;13.90;;
38023;SDS011;23834;48.080;11.682;2024-01-10T10:17:39;15.77;;;14.17;;
38023;SDS011;23834;48.080;11.682;2024-01-10T10:20:32;16.27;;;14.60;;
38023;SDS011;23834;48.080;11.682;2024-01-10T10:23:08;17.43;;;15.63;;
38023;SDS011;23834;48.080;11.682;2024-01-10T10:25:38;17.63;;;15.83;;
38023;SDS011;23834;48.080;11.682;2024-01-10T10:28:07;16.07;;;14.50;;
38023;SDS011;23834;48.080;11.682;2024-01-10T10:30:33;17.00;;;15.40;;
38023;SDS011;23834;48.080;11.682;2024-01-10T10:32:58;17.07;;;15.37;;
38023;SDS011;23834;48.080;11.682;2024-01-10T10:35:24;16.17;;;14.47;;
38023;SDS011;23834;48.080;11.682;2024-01-10T10:37:50;16.63;;;14.90;;
38023;SDS011;23834;48.080;11.682;2024-01-10T10:40:16;15.17;;;13.60;;
38023;SDS011;23834;48.080;11.682;2024-01-10T10:42:43;15.37;;;13.87;;
38023;SDS011;23834;48.080;11.682;2024-01-10T10:45:09;15.40;;;13.80;;
38023;SDS011;23834;48.080;11.682;2024-01-10T10:47:36;15.27;;;13.87;;
38023;SDS011;23834;48.080;11.682;2024-01-10T10:50:03;15.20;;;13.67;;
38023;SDS011;23834;48.080;11.682;2024-01-10T10:52:29;14.77;;;13.27;;
38023;SDS011;23834;48.080;11.682;2024-01-10T10:54:55;16.00;;;14.50;;
38023;SDS011;23834;48.080;11.682;2024-01-10T10:57:22;14.03;;;12.73;;
38023;SDS011;23834;48.080;11.682;2024-01-10T10:59:47;13.60;;;12.27;;
38023;SDS011;23834;48.080;11.682;2024-01-10T11:02:14;15.47;;;13.97;;
38023;SDS011;23834;48.080;11.682;2024-01-10T11:04:44;14.70;;;13.30;;
38023;SDS011;23834;48.080;11.682;2024-01-10T11:07:10;14.10;;;12.70;;
38023;SDS011;23834;48.080;11.682;2024-01-10T11:09:35;14.90;;;12.97;;
38023;SDS011;23834;48.080;11.682;2024-01-10T11:15:06;14.00;;;12.70;;
38023;SDS011;23834;48.080;11.682;2024-01-10T11:17:26;13.97;;;12.67;;
38023;SDS011;23834;48.080;11.682;2024-01-10T11:20:02;14.23;;;12.57;;
38023;SDS011;23834;48.080;11.682;2024-01-10T11:22:45;13.77;;;12.37;;
38023;SDS011;23834;48.080;11.682;2024-01-10T11:25:11;14.63;;;12.40;;
38023;SDS011;23834;48.080;11.682;2024-01-10T11:27:36;14.17;;;12.67;;
38023;SDS011;23834;48.080;11.682;2024-01-10T11:30:01;15.10;;;12.73;;
38023;SDS011;23834;48.080;11.682;2024-01-10T11:32:29;14.37;;;13.00;;
38023;SDS011;23834;48.080;11.682;2024-01-10T11:35:04;13.70;;;12.40;;
38023;SDS011;23834;48.080;11.682;2024-01-10T11:37:39;14.10;;;12.80;;
38023;SDS011;23834;48.080;11.682;2024-01-10T11:40:07;13.30;;;12.10;;
38023;SDS011;23834;48.080;11.682;2024-01-10T11:42:43;14.30;;;12.97;;
38023;SDS011;23834;48.080;11.682;2024-01-10T11:45:09;13.63;;;12.43;;
38023;SDS011;23834;48.080;11.682;2024-01-10T11:47:34;14.43;;;13.07;;
38023;SDS011;23834;48.080;11.682;2024-01-10T11:50:01;14.53;;;13.13;;
38023;SDS011;23834;48.080;11.682;2024-01-10T11:52:33;15.80;;;14.10;;
38023;SDS011;23834;48.080;11.682;2024-01-10T11:54:59;14.60;;;13.20;;
38023;SDS011;23834;48.080;11.682;2024-01-10T11:57:27;15.17;;;13.57;;
38023;SDS011;23834;48.080;11.682;2024-01-10T11:59:54;22.40;;;14.43;;
38023;SDS011;23834;48.080;11.682;2024-01-10T12:02:19;15.47;;;13.87;;
38023;SDS011;23834;48.080;11.682;2024-01-10T12:04:45;16.37;;;14.70;;
38023;SDS011;23834;48.080;11.682;2024-01-10T12:07:13;16.30;;;14.60;;
38023;SDS011;23834;48.080;11.682;2024-01-10T12:09:39;14.20;;;12.83;;
38023;SDS011;23834;48.080;11.682;2024-01-10T12:12:04;15.63;;;14.13;;
38023;SDS011;23834;48.080;11.682;2024-01-10T12:14:30;15.17;;;13.67;;
38023;SDS011;23834;48.080;11.682;2024-01-10T12:16:55;15.90;;;14.27;;
38023;SDS011;23834;48.080;11.682;2024-01-10T12:19:21;14.60;;;13.20;;
38023;SDS011;23834;48.080;11.682;2024-01-10T12:21:46;14.57;;;13.07;;
38023;SDS011;23834;48.080;11.682;2024-01-10T12:24:13;14.50;;;13.10;;
38023;SDS011;23834;48.080;11.682;2024-01-10T12:26:43;15.80;;;14.30;;
38023;SDS011;23834;48.080;11.682;2024-01-10T12:29:08;13.80;;;12.50;;
38023;SDS011;23834;48.080;11.682;2024-01-10T12:31:33;14.37;;;12.97;;
38023;SDS011;23834;48.080;11.682;2024-01-10T12:33:58;14.00;;;12.60;;
38023;SDS011;23834;48.080;11.682;2024-01-10T12:36:24;14.53;;;13.13;;
38023;SDS011;23834;48.080;11.682;2024-01-10T12:38:49;14.30;;;12.90;;
38023;SDS011;23834;48.080;11.682;2024-01-10T12:41:15;15.60;;;13.90;;
38023;SDS011;23834;48.080;11.682;2024-01-10T12:43:40;14.20;;;12.90;;
38023;SDS011;23834;48.080;11.682;2024-01-10T12:46:09;14.33;;;12.90;;
38023;SDS011;23834;48.080;11.682;2024-01-10T12:48:40;15.10;;;13.50;;
38023;SDS011;23834;48.080;11.682;2024-01-10T12:51:12;16.23;;;14.23;;
38023;SDS011;23834;48.080;11.682;2024-01-10T12:53:38;17.70;;;14.20;;
38023;SDS011;23834;48.080;11.682;2024-01-10T12:56:04;17.47;;;15.47;;
38023;SDS011;23834;48.080;11.682;2024-01-10T12:58:30;21.97;;;14.53;;
38023;SDS011;23834;48.080;11.682;2024-01-10T13:00:55;16.20;;;14.70;;
38023;SDS011;23834;48.080;11.682;2024-01-10T13:03:21;41.57;;;33.10;;
38023;SDS011;23834;48.080;11.682;2024-01-10T13:05:46;47.50;;;31.30;;
38023;SDS011;23834;48.080;11.682;2024-01-10T13:08:11;39.93;;;27.90;;
38023;SDS011;23834;48.080;11.682;2024-01-10T13:10:38;38.23;;;29.20;;
38023;SDS011;23834;48.080;11.682;2024-01-10T13:13:03;62.97;;;44.43;;
38023;SDS011;23834;48.080;11.682;2024-01-10T13:15:28;79.20;;;52.60;;
38023;SDS011;23834;48.080;11.682;2024-01-10T13:17:53;64.00;;;44.77;;
38023;SDS011;23834;48.080;11.682;2024-01-10T13:20:19;69.43;;;44.83;;
38023;SDS011;23834;48.080;11.682;2024-01-10T13:22:44;68.73;;;45.33;;
38023;SDS011;23834;48.080;11.682;2024-01-10T13:25:10;58.60;;;41.23;;
38023;SDS011;23834;48.080;11.682;2024-01-10T13:27:36;50.17;;;36.90;;
38023;SDS011;23834;48.080;11.682;2024-01-10T13:30:01;53.87;;;38.00;;
38023;SDS011;23834;48.080;11.682;2024-01-10T13:32:26;45.97;;;33.63;;
38023;SDS011;23834;48.080;11.682;2024-01-10T13:34:51;42.00;;;32.13;;
38023;SDS011;23834;48.080;11.682;2024-01-10T13:37:16;43.40;;;29.60;;
38023;SDS011;23834;48.080;11.682;2024-01-10T13:39:41;38.03;;;28.93;;
38023;SDS011;23834;48.080;11.682;2024-01-10T13:42:07;35.50;;;27.53;;
38023;SDS011;23834;48.080;11.682;2024-01-10T13:44:32;32.20;;;25.60;;
38023;SDS011;23834;48.080;11.682;2024-01-10T13:46:57;31.97;;;24.80;;
38023;SDS011;23834;48.080;11.682;2024-01-10T13:49:22;30.63;;;24.63;;
38023;SDS011;23834;48.080;11.682;2024-01-10T13:51:47;29.00;;;22.60;;
38023;SDS011;23834;48.080;11.682;2024-01-10T13:54:12;26.50;;;21.30;;
38023;SDS011;23834;48.080;11.682;2024-01-10T13:56:38;27.13;;;21.70;;
38023;SDS011;23834;48.080;11.682;2024-01-10T13:59:04;24.70;;;20.77;;
38023;SDS011;23834;48.080;11.682;2024-01-10T14:01:29;26.67;;;20.90;;
38023;SDS011;23834;48.080;11.682;2024-01-10T14:03:55;22.63;;;19.23;;
38023;SDS011;23834;48.080;11.682;2024-01-10T14:06:20;26.97;;;18.90;;